Hlavní strana
METAR-TAF:

METAR-TAF

Letiště :

Curaçao, Nizozemské Antily

zeměpisná šířka: 12-12N, zeměpisná délka: 068-58W, výška: 9 m

Aktuální stav počasí

Zpráva byla vytvořena před 17 minutami, v 12:00 UTC
Východojihovýchodní vítr 11 kt
Teplota 27°C
Vlhkost vzduchu 74%
Tlak 1015 hPa
Viditelnost 10 km a více

METAR: TNCC 121200Z AUTO 12011KT 9999 NSC 27/22 Q1015 NOSIG

Čas: 08:17 (12:17 UTC)

Předpověď počasí

Zpráva byla vytvořena před 2 hodinami a 17 minutami, v 10:00 UTC
Předpověď platná od 12 v 12 UTC do 13 v 12 UTC
Východojihovýchodní vítr 15 kt
Viditelnost 10 km a více
Polojasno ve výšce 2000 ft
Dočasný
od 12 v 12 UTC do 12 v 18 UTC
Oblačno až skoro zataženo ve výšce 1500 ft

TAF: TNCC 121000Z 1212/1312 11015KT 9999 SCT020 TEMPO 1212/1218 BKN015

Stav a předpovědi počasí z více než 4 000 letišť (zprávy METAR a TAF).

Červené a žluté tečky na mapě představují dostupné meteorologické stanice.

Když kurzor umístíte na tečku, zobrazí se název stanice.

Pak kliknutím zobrazíte stav a předpověď počasí.

Chcete-li změnit mapu, kliknutím na zelené tlačítko se znaménkem +mapu přiblížíte, kliknutím na zelené tlačítko se znaménkem – mapu oddálíte a kliknutím na zelené šipky přejdete na sousední mapy.


METAR-TAF: